Niles, OH (44446)

12:36 AM EST on December 18, 2014 (GMT -0500)
Howland | Change Station
CLOSE
Current Station
Personal Weather Station
Location: Warren, OH
Elevation: 988 ft
Nearby Weather Stations

Elev 988 ft 41.25 °N, 80.74 °W | Updated 1 minute ago

Overcast
Overcast
28.3 °F
Feels Like 28 °F
N
2.0
Wind Variable Wind from WNW
Gusts 2.0 mph

Today
High -- | Low -- °F
--% Chance of Precip.
Yesterday
High -- | Low -- °F
Precip. -- in
7:43 AM 4:55 PM
Waning Crescent, 17% visible
Pressure 30.15 in
Visibility 9.0 miles
Clouds Mostly Cloudy 2800 ft
Overcast 3700 ft
Windchill 28 °F
Dew Point 24 °F
Humidity 83%
Rainfall 0.00 in
Snow Depth Not available.
UV 0 out of 12
Pollen .10 out of 12
Air Quality Not available.
Flu Activity Not available.
METAR KYNG 180451Z 25014KT 9SM -SN BKN028 OVC037 M02/M07 A3010 RMK AO2 SLP208 P0000 T10221067 400561022

More Conditions Fewer Conditions

Pressure 30.15 in
Visibility 9.0 miles
Clouds Mostly Cloudy 2800 ft
Overcast 3700 ft
Windchill 28 °F
Dew Point 24 °F
Humidity 83%
Rainfall 0.00 in
Snow Depth Not available.
UV 0 out of 12
Pollen .10 out of 12
Air Quality Not available.
Flu Activity Not available.
METAR KYNG 180451Z 25014KT 9SM -SN BKN028 OVC037 M02/M07 A3010 RMK AO2 SLP208 P0000 T10221067 400561022

More Conditions Fewer Conditions

Nowcast | as of 12:26 am EST on December 18, 2014

Scattered snow showers will be along and north of a line from near Sandusky to Youngstown through 2am. Snowfall accumulations of around a half an inch or less. Drive with caution...untreated roads can be snow covered and slick in spots with the heavier snow showers.

×

10-Day Weather Forecast

Almanac

Astronomy

Dec. 18, 2014 Rise Set
Actual Time
Civil Twilight
Nautical Twilight
Astronomical Twilight
Moon
Length of Visible Light
Length of Day
Tomorrow will be .
, % of the Moon is Illuminated

Today's Extremes

State Highs State Lows

Community

WunderPhotos

Upload Photos

1,778,895 photos uploaded!

WunderBlogs® & News

Nearby

Air Quality

  Air Quality AQ Index Pollutant
Not available.

Snow Depth

Station Depth Elevation

Earthquake Activity

City Distance Mag. Time & Date
Minimum magnitude displayed is 2.5.

Coastal Water Temperatures

Place Temperature

Nearby Weather Stations